GLD1793 HUEN-HUKJ
Flight info
| Callsign | GLD1793 |
|---|---|
| Flight time | 0h 6m |
| Altitude | 7000 |
| Route | DUNVA |
| Aircraft | BE58/M-SDFGIRY/S |
Departure
| Time | 2026-05-09 11:39 |
|---|---|
| Airport | Entebbe International Airport (HUEN) |
Arrival
| Time | 2026-05-09 11:45 |
|---|---|
| Airport | Kajjansi Airfield (HUKJ) |
| Time | Latitude | Longitude | Altitude | Speed | Heading |
|---|---|---|---|---|---|
| 2026-05-09 11:35 | 0.04862 | 32.44042 | 3774 ft | 0 kts | 307° |
| 2026-05-09 11:36 | 0.04873 | 32.44011 | 3775 ft | 10 kts | 275° |
| 2026-05-09 11:36 | 0.04867 | 32.43927 | 3777 ft | 10 kts | 262° |
| 2026-05-09 11:36 | 0.04892 | 32.43884 | 3771 ft | 10 kts | 346° |
| 2026-05-09 11:37 | 0.04981 | 32.43871 | 3775 ft | 16 kts | 352° |
| 2026-05-09 11:37 | 0.05054 | 32.43800 | 3775 ft | 14 kts | 268° |
| 2026-05-09 11:37 | 0.05035 | 32.43708 | 3777 ft | 13 kts | 222° |
| 2026-05-09 11:37 | 0.05007 | 32.43698 | 3776 ft | 0 kts | 168° |
| 2026-05-09 11:38 | 0.04861 | 32.43720 | 3775 ft | 58 kts | 172° |
| 2026-05-09 11:38 | 0.04239 | 32.43805 | 3777 ft | 117 kts | 173° |
| 2026-05-09 11:38 | 0.03319 | 32.43940 | 3824 ft | 144 kts | 171° |
| 2026-05-09 11:38 | 0.02322 | 32.44089 | 4120 ft | 149 kts | 171° |
| 2026-05-09 11:39 | 0.01292 | 32.44330 | 4414 ft | 156 kts | 153° |
| 2026-05-09 11:39 | 0.00643 | 32.45169 | 4725 ft | 160 kts | 102° |
| 2026-05-09 11:39 | 0.00881 | 32.46237 | 5013 ft | 165 kts | 55° |
| 2026-05-09 11:40 | 0.02928 | 32.47255 | 5562 ft | 167 kts | 47° |
| 2026-05-09 11:40 | 0.03411 | 32.48282 | 5851 ft | 165 kts | 75° |
| 2026-05-09 11:40 | 0.03869 | 32.49337 | 6127 ft | 168 kts | 57° |
| 2026-05-09 11:40 | 0.04561 | 32.50265 | 6400 ft | 170 kts | 52° |
| 2026-05-09 11:41 | 0.05292 | 32.51193 | 6660 ft | 171 kts | 52° |
| 2026-05-09 11:41 | 0.06031 | 32.52134 | 6865 ft | 176 kts | 52° |
| 2026-05-09 11:41 | 0.06816 | 32.53140 | 6881 ft | 189 kts | 52° |
| 2026-05-09 11:41 | 0.07665 | 32.54230 | 6653 ft | 209 kts | 52° |
| 2026-05-09 11:42 | 0.08555 | 32.55369 | 6352 ft | 204 kts | 52° |
| 2026-05-09 11:42 | 0.09410 | 32.56462 | 6080 ft | 196 kts | 52° |
| 2026-05-09 11:42 | 0.10232 | 32.57512 | 5846 ft | 189 kts | 53° |
| 2026-05-09 11:42 | 0.11036 | 32.58532 | 5629 ft | 184 kts | 50° |
| 2026-05-09 11:43 | 0.12007 | 32.59288 | 5403 ft | 171 kts | 26° |
| 2026-05-09 11:43 | 0.13109 | 32.59592 | 5184 ft | 159 kts | 5° |
| 2026-05-09 11:43 | 0.14179 | 32.59496 | 4976 ft | 150 kts | 345° |
| 2026-05-09 11:43 | 0.15091 | 32.59081 | 4790 ft | 142 kts | 325° |
| 2026-05-09 11:44 | 0.15842 | 32.58472 | 4600 ft | 137 kts | 319° |
| 2026-05-09 11:44 | 0.16555 | 32.57887 | 4437 ft | 130 kts | 318° |
| 2026-05-09 11:44 | 0.17224 | 32.57308 | 4285 ft | 124 kts | 317° |
| 2026-05-09 11:44 | 0.17883 | 32.56781 | 4120 ft | 116 kts | 319° |
| 2026-05-09 11:45 | 0.18482 | 32.56310 | 3972 ft | 105 kts | 317° |
| 2026-05-09 11:45 | 0.19028 | 32.55857 | 3799 ft | 97 kts | 315° |
| 2026-05-09 11:45 | 0.19484 | 32.55448 | 3749 ft | 72 kts | 321° |
| 2026-05-09 11:45 | 0.19726 | 32.55249 | 3752 ft | 33 kts | 320° |
| 2026-05-09 11:46 | 0.19878 | 32.55120 | 3749 ft | 24 kts | 316° |
| 2026-05-09 11:46 | 0.19890 | 32.55066 | 3750 ft | 0 kts | 322° |